Time;durP1;ratioP1;P1;durP2;ratioP2;P2;SDS_P1;SDS_P2;PMS_P1;PMS_P2;Temp;Humidity;BMP_temperature;BMP_pressure;BME280_temperature;BME280_humidity;BME280_pressure;Samples;Min_cycle;Max_cycle;Signal;HPM_P1;HPM_P2
2023/03/31 00:01:33;;;;;;;7.80;5.63;;;6.70;57.30;;;;;;5072451;28;20360;-61
2023/03/31 00:04:03;;;;;;;9.30;5.85;;;6.70;57.30;;;;;;5072354;28;20028;-61
2023/03/31 00:06:36;;;;;;;6.88;5.20;;;6.70;57.30;;;;;;5070735;28;20471;-53
2023/03/31 00:09:10;;;;;;;8.75;5.93;;;6.70;57.40;;;;;;5071946;28;20510;-50
2023/03/31 00:11:36;;;;;;;9.20;6.07;;;6.70;57.60;;;;;;5071919;28;20386;-60
2023/03/31 00:14:06;;;;;;;9.23;6.15;;;6.70;57.70;;;;;;5065906;28;20097;-61
2023/03/31 00:16:32;;;;;;;10.70;7.57;;;6.60;57.90;;;;;;5069828;28;20024;-62
2023/03/31 00:19:00;;;;;;;8.65;6.70;;;6.60;58.00;;;;;;5069290;28;20039;-61
2023/03/31 00:21:33;;;;;;;8.95;6.75;;;6.50;58.00;;;;;;5072494;28;20036;-60
2023/03/31 00:24:01;;;;;;;9.93;7.28;;;6.50;58.10;;;;;;5070946;28;20090;-60
2023/03/31 00:26:28;;;;;;;7.65;5.57;;;6.40;58.10;;;;;;5071507;28;20042;-54
2023/03/31 00:28:54;;;;;;;8.38;6.07;;;6.40;58.40;;;;;;5072485;28;20025;-53
2023/03/31 00:31:21;;;;;;;9.15;5.85;;;6.40;58.40;;;;;;5070543;28;20502;-59
2023/03/31 00:33:47;;;;;;;8.85;6.20;;;6.40;58.40;;;;;;5064000;28;20810;-60
2023/03/31 00:36:16;;;;;;;7.97;5.97;;;6.40;58.20;;;;;;5070543;28;20578;-60
2023/03/31 00:38:45;;;;;;;9.15;6.40;;;6.40;58.30;;;;;;5071657;28;20024;-60
2023/03/31 00:41:10;;;;;;;7.18;5.43;;;6.30;58.30;;;;;;5071430;28;20028;-60
2023/03/31 00:43:37;;;;;;;7.25;5.25;;;6.40;58.40;;;;;;5071097;28;20111;-58
2023/03/31 00:46:14;;;;;;;8.30;5.88;;;6.30;58.30;;;;;;5072820;28;20082;-60
2023/03/31 00:48:46;;;;;;;6.88;5.07;;;6.40;58.30;;;;;;5071413;28;20044;-60
2023/03/31 00:51:12;;;;;;;5.72;5.13;;;6.40;58.90;;;;;;5066383;28;20134;-58
2023/03/31 00:53:38;;;;;;;8.52;5.38;;;6.40;58.20;;;;;;5063195;28;20086;-52
2023/03/31 00:56:11;;;;;;;6.95;5.47;;;6.40;58.00;;;;;;5068053;28;20060;-60
2023/03/31 00:58:42;;;;;;;6.22;5.47;;;6.50;58.10;;;;;;5065970;28;20052;-60
2023/03/31 01:01:13;;;;;;;8.43;5.78;;;6.50;58.10;;;;;;5062942;28;20557;-60
2023/03/31 01:03:41;;;;;;;7.85;5.85;;;6.50;58.00;;;;;;5070817;28;20035;-61
2023/03/31 01:06:09;;;;;;;9.18;5.60;;;6.50;58.10;;;;;;5071838;28;20444;-60
2023/03/31 01:08:37;;;;;;;8.18;6.18;;;6.50;58.10;;;;;;5067536;28;20024;-60
2023/03/31 01:11:06;;;;;;;8.63;6.10;;;6.50;58.00;;;;;;5070997;28;20102;-51
2023/03/31 01:13:34;;;;;;;7.45;5.97;;;6.60;58.10;;;;;;5071322;28;20035;-58
2023/03/31 01:16:00;;;;;;;8.27;6.25;;;6.50;58.10;;;;;;5069190;28;20079;-51
2023/03/31 01:18:27;;;;;;;8.43;5.82;;;6.60;58.10;;;;;;5067201;28;20426;-53
2023/03/31 01:21:17;;;;;;;7.80;5.50;;;6.60;58.00;;;;;;5071602;28;20128;-50
2023/03/31 01:24:01;;;;;;;7.45;5.53;;;6.60;58.20;;;;;;5071927;28;20067;-50
2023/03/31 01:26:37;;;;;;;7.05;5.45;;;6.60;58.30;;;;;;5069384;28;20119;-60
2023/03/31 01:29:24;;;;;;;8.48;6.07;;;6.60;58.40;;;;;;5062841;28;20029;-59
2023/03/31 01:31:59;;;;;;;8.73;5.53;;;6.60;58.40;;;;;;5071647;28;20024;-52
2023/03/31 01:34:51;;;;;;;8.30;5.93;;;6.60;58.50;;;;;;5073767;28;20443;-49
2023/03/31 01:37:36;;;;;;;7.22;5.60;;;6.60;58.50;;;;;;5069235;28;20033;-60
2023/03/31 01:40:17;;;;;;;8.45;6.05;;;6.60;58.70;;;;;;5069788;28;20020;-60
2023/03/31 01:42:48;;;;;;;8.70;6.10;;;6.60;58.70;;;;;;5070598;28;20115;-60
2023/03/31 01:45:26;;;;;;;9.55;6.60;;;6.70;58.80;;;;;;5057933;28;20059;-61
2023/03/31 01:48:01;;;;;;;8.32;6.10;;;6.70;58.60;;;;;;5073931;28;20359;-61
2023/03/31 01:50:33;;;;;;;9.13;6.35;;;6.70;58.60;;;;;;5074690;28;20024;-58
2023/03/31 01:53:21;;;;;;;;;;;6.60;58.70;;;;;;5074880;28;20051;-60
2023/03/31 01:55:56;;;;;;;7.13;5.40;;;6.70;58.70;;;;;;5073143;28;19911;-59
2023/03/31 01:58:50;;;;;;;8.05;5.82;;;6.70;58.70;;;;;;5072028;28;20029;-61
2023/03/31 02:01:22;;;;;;;8.32;6.22;;;6.70;58.60;;;;;;5074113;28;20131;-59
2023/03/31 02:04:02;;;;;;;9.18;6.13;;;6.70;58.50;;;;;;5074333;28;20028;-60
2023/03/31 02:06:35;;;;;;;8.63;6.25;;;6.70;58.60;;;;;;5061994;28;20523;-60
2023/03/31 02:09:06;;;;;;;9.45;6.35;;;6.70;58.70;;;;;;5074452;28;20037;-60
2023/03/31 02:11:33;;;;;;;10.23;6.80;;;6.80;58.90;;;;;;5074200;28;20032;-58
2023/03/31 02:14:01;;;;;;;9.15;6.75;;;6.80;59.10;;;;;;5073858;28;20067;-59
2023/03/31 02:16:31;;;;;;;10.40;7.45;;;6.80;59.10;;;;;;5068677;28;20063;-60
2023/03/31 02:19:04;;;;;;;9.43;7.30;;;6.80;59.20;;;;;;5071610;28;20048;-61
2023/03/31 02:21:32;;;;;;;9.68;6.93;;;6.80;59.20;;;;;;5068744;28;20029;-59
2023/03/31 02:24:02;;;;;;;8.45;6.60;;;6.80;59.20;;;;;;5073950;28;20052;-60
2023/03/31 02:26:33;;;;;;;8.73;7.03;;;6.80;59.30;;;;;;5055966;28;20028;-60
2023/03/31 02:28:58;;;;;;;10.10;6.80;;;6.90;59.20;;;;;;5073901;28;20063;-60
2023/03/31 02:31:46;;;;;;;9.30;6.88;;;6.90;59.40;;;;;;5073631;28;20072;-59
2023/03/31 02:34:12;;;;;;;10.55;7.18;;;6.90;59.30;;;;;;5069591;28;20502;-59
2023/03/31 02:36:41;;;;;;;9.95;7.55;;;6.90;59.70;;;;;;5073903;28;20068;-61
2023/03/31 02:39:14;;;;;;;8.82;6.80;;;6.90;59.60;;;;;;5064445;28;20033;-60
2023/03/31 02:41:40;;;;;;;9.70;7.55;;;7.00;60.20;;;;;;5069805;28;20044;-59
2023/03/31 02:44:06;;;;;;;10.60;7.22;;;7.00;59.70;;;;;;5069559;28;20103;-60
2023/03/31 02:46:32;;;;;;;10.73;7.13;;;7.00;59.60;;;;;;5073702;28;20032;-61
2023/03/31 02:49:00;;;;;;;9.40;7.20;;;7.00;59.70;;;;;;5069468;28;20024;-60
2023/03/31 02:52:00;;;;;;;10.05;7.93;;;7.00;59.80;;;;;;5073416;28;20444;-61
2023/03/31 02:54:46;;;;;;;11.60;7.55;;;7.00;59.80;;;;;;5065359;28;20574;-61
2023/03/31 02:57:47;;;;;;;10.55;7.30;;;7.00;59.70;;;;;;5079646;28;20532;-60
2023/03/31 03:00:50;;;;;;;13.52;8.57;;;7.00;59.80;;;;;;5067941;28;20770;-61
2023/03/31 03:03:35;;;;;;;10.63;7.93;;;7.00;59.70;;;;;;5061405;28;20024;-60
2023/03/31 03:06:29;;;;;;;9.88;7.57;;;7.00;59.30;;;;;;5073127;28;20074;-60
2023/03/31 03:08:54;;;;;;;10.23;7.18;;;7.00;59.70;;;;;;5071803;28;20103;-60
2023/03/31 03:11:26;;;;;;;8.63;7.10;;;7.00;59.80;;;;;;5072959;28;20051;-60
2023/03/31 03:14:05;;;;;;;10.25;7.15;;;7.00;59.70;;;;;;5072946;28;20112;-60
2023/03/31 03:16:32;;;;;;;9.52;7.05;;;7.00;59.80;;;;;;5073137;28;20071;-60
2023/03/31 03:19:01;;;;;;;9.43;6.78;;;7.00;59.80;;;;;;5069008;28;20043;-61
2023/03/31 03:21:27;;;;;;;11.57;7.07;;;7.00;59.80;;;;;;5071031;28;20387;-60
2023/03/31 03:23:53;;;;;;;8.90;6.65;;;7.00;59.70;;;;;;5071636;28;20057;-60
2023/03/31 03:26:20;;;;;;;10.57;7.53;;;7.00;59.80;;;;;;5071709;28;20087;-60
2023/03/31 03:28:47;;;;;;;10.43;7.78;;;7.00;59.80;;;;;;5069029;28;20105;-59
2023/03/31 03:31:14;;;;;;;11.30;7.13;;;7.00;59.90;;;;;;5071459;28;20107;-60
2023/03/31 03:33:40;;;;;;;9.63;6.47;;;6.90;59.90;;;;;;5064696;28;20013;-60
2023/03/31 03:36:06;;;;;;;9.13;7.28;;;6.90;60.00;;;;;;5072550;28;20033;-60
2023/03/31 03:38:32;;;;;;;10.82;7.13;;;6.90;60.00;;;;;;5072118;28;20048;-60
2023/03/31 03:40:58;;;;;;;10.20;7.70;;;7.00;60.10;;;;;;5072919;28;20060;-60
2023/03/31 03:43:23;;;;;;;10.50;7.60;;;7.00;60.10;;;;;;5070572;28;20020;-59
2023/03/31 03:45:50;;;;;;;10.75;8.05;;;7.00;60.80;;;;;;5071855;28;20468;-60
2023/03/31 03:48:16;;;;;;;11.27;7.50;;;7.00;60.20;;;;;;5068741;28;20107;-61
2023/03/31 03:50:43;;;;;;;12.18;7.10;;;7.00;60.20;;;;;;5070080;28;20111;-54
2023/03/31 03:53:09;;;;;;;15.82;10.43;;;7.00;60.10;;;;;;5064401;28;20031;-51
2023/03/31 03:55:35;;;;;;;20.65;13.18;;;7.00;59.90;;;;;;5073015;28;20382;-54
2023/03/31 03:58:01;;;;;;;23.25;14.25;;;7.10;59.90;;;;;;5061612;28;20032;-52
2023/03/31 04:00:26;;;;;;;25.55;16.33;;;7.10;59.70;;;;;;5072202;28;20032;-54
2023/03/31 04:02:52;;;;;;;26.08;15.63;;;7.10;59.70;;;;;;5066996;28;20505;-51
2023/03/31 04:05:17;;;;;;;24.55;16.00;;;7.10;59.60;;;;;;5072438;28;20071;-51
2023/03/31 04:07:43;;;;;;;26.10;17.02;;;7.10;59.60;;;;;;5072324;28;20031;-59
2023/03/31 04:10:09;;;;;;;28.23;16.58;;;7.10;59.60;;;;;;5067293;28;20116;-60
2023/03/31 04:12:35;;;;;;;23.92;16.30;;;7.20;60.20;;;;;;5067581;28;20085;-59
2023/03/31 04:15:02;;;;;;;24.52;16.10;;;7.10;59.60;;;;;;5070662;28;20028;-60
2023/03/31 04:17:33;;;;;;;24.02;16.48;;;7.20;59.70;;;;;;5070955;28;20135;-60
2023/03/31 04:20:00;;;;;;;23.07;15.53;;;7.20;59.70;;;;;;5064139;28;20435;-62
2023/03/31 04:22:34;;;;;;;24.75;15.35;;;7.20;59.70;;;;;;5061092;28;20417;-61
2023/03/31 04:25:01;;;;;;;25.23;15.90;;;7.30;59.70;;;;;;5059138;28;20040;-61
2023/03/31 04:27:27;;;;;;;20.05;14.30;;;7.30;59.70;;;;;;5062812;28;20087;-59
2023/03/31 04:29:56;;;;;;;27.85;17.58;;;7.30;59.70;;;;;;5063911;28;21771;-59
2023/03/31 04:32:22;;;;;;;26.33;16.52;;;7.30;59.80;;;;;;5071222;28;20495;-61
2023/03/31 04:34:49;;;;;;;28.70;17.45;;;7.30;59.80;;;;;;5069096;28;20437;-60
2023/03/31 04:37:16;;;;;;;24.52;16.52;;;7.30;60.00;;;;;;5066139;28;20345;-54
2023/03/31 04:39:45;;;;;;;22.70;16.50;;;7.30;60.10;;;;;;5069470;28;20557;-56
2023/03/31 04:42:11;;;;;;;22.27;14.57;;;7.30;60.20;;;;;;5069461;28;20035;-61
2023/03/31 04:44:37;;;;;;;18.10;12.85;;;7.30;60.40;;;;;;5068871;28;20139;-65
2023/03/31 04:47:05;;;;;;;20.83;13.68;;;7.30;60.40;;;;;;5074006;28;20092;-61
2023/03/31 04:49:32;;;;;;;18.35;12.18;;;7.40;60.40;;;;;;5067916;28;20029;-61
2023/03/31 04:51:57;;;;;;;15.77;11.95;;;7.40;60.30;;;;;;5071767;28;20082;-61
2023/03/31 04:54:23;;;;;;;15.75;11.10;;;7.50;60.30;;;;;;5069237;28;20056;-61
2023/03/31 04:56:49;;;;;;;16.25;10.75;;;7.50;60.10;;;;;;5071142;28;20036;-61
2023/03/31 04:59:14;;;;;;;13.45;10.15;;;7.50;60.10;;;;;;5068624;28;20158;-61
2023/03/31 05:01:44;;;;;;;16.85;11.27;;;7.50;60.00;;;;;;5068399;28;20056;-62
2023/03/31 05:04:10;;;;;;;15.43;11.70;;;7.60;60.00;;;;;;5071450;28;20037;-60
2023/03/31 05:06:35;;;;;;;15.45;11.55;;;7.60;59.90;;;;;;5071416;28;20021;-54
2023/03/31 05:09:01;;;;;;;16.40;10.98;;;7.60;59.80;;;;;;5071800;28;20024;-52
2023/03/31 05:11:27;;;;;;;18.42;12.05;;;7.60;59.60;;;;;;5070958;28;20050;-61
2023/03/31 05:13:53;;;;;;;16.30;11.55;;;7.70;59.70;;;;;;5069893;28;20033;-61
2023/03/31 05:16:19;;;;;;;16.35;11.82;;;7.70;59.60;;;;;;5069430;28;20029;-61
2023/03/31 05:18:45;;;;;;;16.23;11.52;;;7.70;59.50;;;;;;5068243;28;20478;-61
2023/03/31 05:21:16;;;;;;;16.75;11.77;;;7.80;59.40;;;;;;5069556;28;20115;-61
2023/03/31 05:23:43;;;;;;;18.60;12.45;;;7.80;59.30;;;;;;5070084;28;20761;-62
2023/03/31 05:26:09;;;;;;;18.75;13.48;;;7.80;59.20;;;;;;5071338;28;20048;-54
2023/03/31 05:28:35;;;;;;;18.50;13.30;;;7.90;58.80;;;;;;5076914;28;20023;-54
2023/03/31 05:31:02;;;;;;;18.95;14.32;;;7.90;59.20;;;;;;5077832;28;20127;-62
2023/03/31 05:33:28;;;;;;;20.98;15.05;;;7.90;59.20;;;;;;5065594;28;20033;-62
2023/03/31 05:35:55;;;;;;;19.30;15.02;;;7.90;59.10;;;;;;5069847;28;20086;-51
2023/03/31 05:38:21;;;;;;;20.55;14.40;;;7.90;59.10;;;;;;5068886;28;20041;-55
2023/03/31 05:40:47;;;;;;;23.75;14.63;;;7.90;59.10;;;;;;5062561;28;20033;-60
2023/03/31 05:43:13;;;;;;;21.92;14.68;;;7.90;59.10;;;;;;5074459;28;20028;-60
2023/03/31 05:45:38;;;;;;;19.65;13.45;;;7.90;59.20;;;;;;5065588;28;20515;-61
2023/03/31 05:48:05;;;;;;;19.23;14.13;;;7.90;59.30;;;;;;5069933;28;20486;-61
2023/03/31 05:50:31;;;;;;;20.08;13.25;;;7.90;59.30;;;;;;5069705;28;20025;-61
2023/03/31 05:52:58;;;;;;;17.75;11.88;;;8.00;59.30;;;;;;5086211;28;20031;-61
2023/03/31 05:55:23;;;;;;;13.07;10.05;;;8.10;59.30;;;;;;5074844;28;20024;-61
2023/03/31 05:57:49;;;;;;;14.25;9.57;;;8.20;59.30;;;;;;5073133;28;20036;-62
2023/03/31 06:00:15;;;;;;;10.38;8.27;;;8.20;59.10;;;;;;5079132;28;20024;-60
2023/03/31 06:02:41;;;;;;;10.07;7.35;;;8.30;58.90;;;;;;5063709;28;20430;-53
2023/03/31 06:05:07;;;;;;;10.63;7.82;;;8.30;58.80;;;;;;5066069;28;20020;-51
2023/03/31 06:07:33;;;;;;;13.82;7.97;;;8.40;58.70;;;;;;5073129;28;20031;-52
2023/03/31 06:09:58;;;;;;;11.45;8.05;;;8.40;58.60;;;;;;5064455;28;20039;-58
2023/03/31 06:12:24;;;;;;;12.45;8.73;;;8.50;58.60;;;;;;5062318;28;20067;-53
2023/03/31 06:14:49;;;;;;;14.80;9.90;;;8.50;58.50;;;;;;5059505;28;20024;-51
2023/03/31 06:17:15;;;;;;;13.23;9.23;;;8.60;59.00;;;;;;5060002;28;20033;-48
2023/03/31 06:19:41;;;;;;;14.10;9.93;;;8.60;58.20;;;;;;5074555;28;20024;-53
2023/03/31 06:22:07;;;;;;;15.63;10.10;;;8.70;58.20;;;;;;5069715;28;20126;-52
2023/03/31 06:24:33;;;;;;;13.20;9.93;;;8.70;58.10;;;;;;5066514;28;20067;-51
2023/03/31 06:26:59;;;;;;;12.18;9.30;;;8.80;57.90;;;;;;5070508;28;20051;-55
2023/03/31 06:29:26;;;;;;;11.38;8.50;;;8.80;57.80;;;;;;5061029;28;20403;-52
2023/03/31 06:31:51;;;;;;;12.73;8.20;;;8.80;57.60;;;;;;5060668;28;20040;-53
2023/03/31 06:34:17;;;;;;;11.07;8.05;;;8.90;57.60;;;;;;5058407;28;20086;-54
2023/03/31 06:36:43;;;;;;;12.75;7.32;;;8.90;57.50;;;;;;5063267;28;20472;-53
2023/03/31 06:39:09;;;;;;;11.23;7.28;;;8.90;57.30;;;;;;5056644;28;20057;-52
2023/03/31 06:41:35;;;;;;;9.75;6.85;;;9.00;57.20;;;;;;5063080;28;20036;-56
2023/03/31 06:44:00;;;;;;;9.45;7.15;;;9.10;57.20;;;;;;5062012;28;20387;-52
2023/03/31 06:46:26;;;;;;;9.63;7.40;;;9.20;57.10;;;;;;5060001;28;20029;-54
2023/03/31 06:48:53;;;;;;;9.25;7.05;;;9.20;57.00;;;;;;5061470;28;20479;-57
2023/03/31 06:51:18;;;;;;;9.27;7.50;;;9.30;56.90;;;;;;5055149;28;20716;-52
2023/03/31 06:53:44;;;;;;;12.35;7.25;;;9.40;56.90;;;;;;5063473;28;20033;-50
2023/03/31 06:56:10;;;;;;;10.85;7.20;;;9.50;56.70;;;;;;5067432;28;20371;-52
2023/03/31 06:58:36;;;;;;;11.10;7.32;;;9.60;56.60;;;;;;5069089;28;20043;-56
2023/03/31 07:01:03;;;;;;;10.63;6.97;;;9.70;56.50;;;;;;5063201;28;20032;-57
2023/03/31 07:03:29;;;;;;;9.57;7.35;;;9.70;56.30;;;;;;5052080;28;20025;-51
2023/03/31 07:05:55;;;;;;;10.25;7.38;;;9.80;56.20;;;;;;5055404;28;20241;-53
2023/03/31 07:08:21;;;;;;;11.75;7.90;;;9.80;56.10;;;;;;5053848;28;20131;-52
2023/03/31 07:10:49;;;;;;;12.73;7.95;;;9.90;56.20;;;;;;5056682;28;20035;-55
2023/03/31 07:13:15;;;;;;;10.45;7.07;;;10.00;56.10;;;;;;5054608;28;20070;-53
2023/03/31 07:15:41;;;;;;;9.20;6.32;;;10.00;55.90;;;;;;5059383;28;20082;-54
2023/03/31 07:18:08;;;;;;;9.05;6.70;;;10.10;55.80;;;;;;5062348;28;21253;-55
2023/03/31 07:20:34;;;;;;;8.90;6.25;;;10.10;55.10;;;;;;5052854;28;20060;-51
2023/03/31 07:23:03;;;;;;;8.82;5.97;;;10.20;55.60;;;;;;5050498;28;20562;-48
2023/03/31 07:25:29;;;;;;;8.25;6.15;;;10.20;55.50;;;;;;5063089;28;20036;-49
2023/03/31 07:27:55;;;;;;;9.63;5.93;;;10.20;55.50;;;;;;5064516;28;20038;-52
2023/03/31 07:30:21;;;;;;;10.50;6.35;;;10.20;55.50;;;;;;5055967;28;23828;-54
2023/03/31 07:32:49;;;;;;;9.85;6.20;;;10.30;55.60;;;;;;5050319;28;20087;-52
2023/03/31 07:35:15;;;;;;;10.13;6.05;;;10.30;55.70;;;;;;5043870;28;20032;-57
2023/03/31 07:37:44;;;;;;;8.15;6.25;;;10.40;55.70;;;;;;5053365;28;20036;-52
2023/03/31 07:40:15;;;;;;;8.20;6.13;;;10.50;55.60;;;;;;5054560;28;20047;-56
2023/03/31 07:42:42;;;;;;;9.18;6.18;;;10.60;55.70;;;;;;5054885;28;20032;-56
2023/03/31 07:45:09;;;;;;;10.32;6.82;;;10.70;55.60;;;;;;5055533;28;20081;-53
2023/03/31 07:47:35;;;;;;;10.15;6.60;;;10.80;55.50;;;;;;5038074;28;20043;-55
2023/03/31 07:50:01;;;;;;;8.60;6.93;;;10.90;55.40;;;;;;5047944;28;20029;-57
2023/03/31 07:52:27;;;;;;;8.93;6.22;;;10.90;55.30;;;;;;5035916;28;20037;-56
2023/03/31 07:54:53;;;;;;;8.65;6.30;;;11.00;55.20;;;;;;5039244;28;20036;-57
2023/03/31 07:57:18;;;;;;;10.00;6.80;;;11.10;55.30;;;;;;5049152;28;20066;-56
2023/03/31 07:59:45;;;;;;;8.90;6.40;;;11.10;55.20;;;;;;5043862;28;20036;-54
2023/03/31 08:02:13;;;;;;;8.25;6.07;;;11.20;55.00;;;;;;5044047;28;20379;-54
2023/03/31 08:04:42;;;;;;;8.73;5.45;;;11.20;55.10;;;;;;5050716;28;20040;-55
2023/03/31 08:07:12;;;;;;;8.68;6.38;;;11.30;55.00;;;;;;5047280;28;20037;-55
2023/03/31 08:09:38;;;;;;;7.35;6.13;;;11.40;54.90;;;;;;5058576;28;20032;-53
2023/03/31 08:12:04;;;;;;;8.70;5.70;;;11.40;54.70;;;;;;5053745;28;20040;-58
2023/03/31 08:14:31;;;;;;;9.60;5.75;;;11.50;54.70;;;;;;5059586;28;20028;-53
2023/03/31 08:16:58;;;;;;;7.30;5.28;;;11.50;54.50;;;;;;5049301;28;20112;-54
2023/03/31 08:19:25;;;;;;;6.30;4.85;;;11.60;54.30;;;;;;5053800;28;20032;-54
2023/03/31 08:21:51;;;;;;;9.25;5.43;;;11.60;54.20;;;;;;5051435;28;20035;-53
2023/03/31 08:24:17;;;;;;;8.18;5.47;;;11.70;54.10;;;;;;5056537;28;21478;-56
2023/03/31 08:26:43;;;;;;;8.50;5.72;;;11.70;54.00;;;;;;5051946;28;20033;-55
2023/03/31 08:29:09;;;;;;;6.22;5.13;;;11.80;53.90;;;;;;5047533;28;20190;-56
2023/03/31 08:31:35;;;;;;;7.30;5.15;;;11.90;53.70;;;;;;5050681;28;20033;-51
2023/03/31 08:34:01;;;;;;;9.02;5.35;;;11.90;53.60;;;;;;5055614;28;20037;-53
2023/03/31 08:36:27;;;;;;;8.55;5.68;;;12.00;53.40;;;;;;5048911;28;20672;-55
2023/03/31 08:38:53;;;;;;;8.45;6.10;;;12.00;53.20;;;;;;5061631;28;20436;-53
2023/03/31 08:41:44;;;;;;;8.63;5.45;;;12.00;53.00;;;;;;5049765;28;20050;-52
2023/03/31 08:44:20;;;;;;;7.18;5.30;;;12.10;53.10;;;;;;5050053;28;20039;-50
2023/03/31 08:46:47;;;;;;;7.60;5.50;;;12.10;53.00;;;;;;5054431;28;20025;-54
2023/03/31 08:49:17;;;;;;;7.32;5.40;;;12.20;53.10;;;;;;5054937;28;20597;-54
2023/03/31 08:51:49;;;;;;;7.38;5.50;;;12.30;53.00;;;;;;5046076;28;20375;-51
2023/03/31 08:54:48;;;;;;;8.20;5.75;;;12.30;52.90;;;;;;5064572;28;20040;-53
2023/03/31 08:57:19;;;;;;;9.15;5.47;;;12.30;52.60;;;;;;5043758;28;20039;-56
2023/03/31 08:59:45;;;;;;;7.22;5.97;;;12.40;52.50;;;;;;5066675;28;20115;-53
2023/03/31 09:02:32;;;;;;;7.70;5.53;;;12.40;52.50;;;;;;5053627;28;20035;-53
2023/03/31 09:05:37;;;;;;;8.70;5.72;;;12.40;52.40;;;;;;5052276;28;20033;-57
2023/03/31 09:08:18;;;;;;;7.40;5.63;;;12.30;52.50;;;;;;4955485;28;20443;-53
2023/03/31 09:11:07;;;;;;;7.68;5.97;;;12.40;52.60;;;;;;4955427;28;20077;-48
2023/03/31 09:14:15;;;;;;;7.57;5.13;;;12.40;52.80;;;;;;5024056;28;20029;-53
2023/03/31 09:16:59;;;;;;;10.05;5.88;;;12.40;52.60;;;;;;5035099;28;20048;-54
2023/03/31 09:19:55;;;;;;;7.82;5.70;;;12.50;52.60;;;;;;5049138;28;20083;-48
2023/03/31 09:22:39;;;;;;;7.32;5.15;;;12.60;52.30;;;;;;5011958;28;22501;-58
2023/03/31 09:25:09;;;;;;;8.10;5.57;;;12.70;51.90;;;;;;5051201;28;20572;-59
2023/03/31 09:27:36;;;;;;;6.68;5.05;;;12.70;51.80;;;;;;5047077;28;20068;-58
2023/03/31 09:30:20;;;;;;;7.88;5.30;;;12.60;51.90;;;;;;5052927;28;20037;-54
2023/03/31 09:32:48;;;;;;;6.72;5.13;;;12.70;52.00;;;;;;5051894;28;20045;-56
2023/03/31 09:35:24;;;;;;;7.95;5.35;;;12.70;51.90;;;;;;5056838;28;20063;-56
2023/03/31 09:37:51;;;;;;;8.25;5.20;;;12.80;51.80;;;;;;5052938;28;20502;-55
2023/03/31 09:40:20;;;;;;;7.93;5.10;;;12.80;51.70;;;;;;5042925;28;20052;-56
2023/03/31 09:43:07;;;;;;;6.28;4.93;;;12.90;51.40;;;;;;5040774;28;20040;-54
2023/03/31 09:45:33;;;;;;;6.05;4.80;;;12.90;51.20;;;;;;5048692;28;20064;-53
2023/03/31 09:48:17;;;;;;;6.82;4.88;;;13.00;51.10;;;;;;5045379;28;20036;-54
2023/03/31 09:51:12;;;;;;;6.70;5.05;;;13.10;50.80;;;;;;5047547;28;20021;-55
2023/03/31 09:53:45;;;;;;;6.05;4.40;;;13.10;50.50;;;;;;5050024;28;20040;-50
2023/03/31 09:56:10;;;;;;;5.57;4.35;;;13.10;50.60;;;;;;5037496;28;20029;-54
2023/03/31 09:58:45;;;;;;;7.18;4.45;;;13.10;50.60;;;;;;5044514;28;20024;-53
2023/03/31 10:01:12;;;;;;;6.72;5.00;;;13.10;50.50;;;;;;5053328;28;20071;-53
2023/03/31 10:03:49;;;;;;;6.97;4.47;;;13.20;50.20;;;;;;5050417;28;20974;-51
2023/03/31 10:06:16;;;;;;;6.68;4.40;;;13.30;50.20;;;;;;5038568;28;20051;-58
2023/03/31 10:08:50;;;;;;;6.20;4.40;;;13.30;50.00;;;;;;5054134;28;20190;-53
2023/03/31 10:11:16;;;;;;;6.45;4.28;;;13.40;49.80;;;;;;5060256;28;20670;-57
2023/03/31 10:13:45;;;;;;;6.38;4.30;;;13.40;49.70;;;;;;5055062;28;20152;-55
2023/03/31 10:16:26;;;;;;;6.88;4.47;;;13.50;49.50;;;;;;5054465;28;20035;-56
2023/03/31 10:18:52;;;;;;;7.05;4.40;;;13.50;49.50;;;;;;5050410;28;20042;-55
2023/03/31 10:21:24;;;;;;;5.95;3.83;;;13.50;49.50;;;;;;5053021;28;20081;-52
2023/03/31 10:23:51;;;;;;;4.85;4.22;;;13.60;49.40;;;;;;5047770;28;20044;-55
2023/03/31 10:26:20;;;;;;;6.93;4.30;;;13.60;49.40;;;;;;5047780;28;20644;-52
2023/03/31 10:28:51;;;;;;;7.05;4.35;;;13.70;49.20;;;;;;5049743;28;20771;-57
2023/03/31 10:31:32;;;;;;;5.90;3.90;;;13.80;49.10;;;;;;5062149;28;20463;-52
2023/03/31 10:34:03;;;;;;;6.10;3.90;;;13.90;49.00;;;;;;5048169;28;20095;-55
2023/03/31 10:36:30;;;;;;;4.40;3.40;;;14.00;48.80;;;;;;5046717;28;20055;-55
2023/03/31 10:38:57;;;;;;;5.53;3.78;;;14.00;48.50;;;;;;5047719;28;20029;-55
2023/03/31 10:41:26;;;;;;;6.20;4.10;;;14.10;48.40;;;;;;5050528;28;20611;-53
2023/03/31 10:43:58;;;;;;;5.68;4.15;;;14.20;48.20;;;;;;5049994;28;20040;-50
2023/03/31 10:46:45;;;;;;;5.15;3.75;;;14.20;48.00;;;;;;5048268;28;20847;-52
2023/03/31 10:49:24;;;;;;;4.72;3.47;;;14.20;48.50;;;;;;5046632;28;20039;-54
2023/03/31 10:51:56;;;;;;;5.63;4.15;;;14.30;48.00;;;;;;5038417;28;20089;-58
2023/03/31 10:54:22;;;;;;;5.20;3.83;;;14.40;47.80;;;;;;5051100;28;20504;-54
2023/03/31 10:56:51;;;;;;;4.80;3.50;;;14.40;47.70;;;;;;5051942;28;20536;-57
2023/03/31 10:59:45;;;;;;;4.07;3.10;;;14.50;47.40;;;;;;5042604;28;20064;-55
2023/03/31 11:02:49;;;;;;;5.05;3.50;;;14.50;47.30;;;;;;5040505;28;20364;-55
2023/03/31 11:05:21;;;;;;;5.53;3.55;;;14.60;47.00;;;;;;5044240;28;20032;-55
2023/03/31 11:08:09;;;;;;;5.18;3.53;;;14.70;46.90;;;;;;5041892;28;20942;-52
2023/03/31 11:10:57;;;;;;;4.90;3.42;;;14.70;46.80;;;;;;5045177;28;20122;-54
2023/03/31 11:13:51;;;;;;;5.10;3.47;;;14.70;46.70;;;;;;5044152;28;20143;-54
2023/03/31 11:16:35;;;;;;;5.13;3.42;;;14.80;46.60;;;;;;5056119;28;20020;-52
2023/03/31 11:19:06;;;;;;;4.63;3.30;;;14.80;46.40;;;;;;5051394;28;20047;-54
2023/03/31 11:21:58;;;;;;;4.78;3.78;;;14.80;46.40;;;;;;5054161;28;20652;-55
2023/03/31 11:25:11;;;;;;;4.78;3.35;;;14.80;47.00;;;;;;5051053;28;20057;-54
2023/03/31 11:28:03;;;;;;;5.32;3.80;;;14.80;46.60;;;;;;5009376;28;20040;-52
2023/03/31 11:31:11;;;;;;;5.15;3.75;;;14.90;46.80;;;;;;5058058;28;20089;-54
2023/03/31 11:33:47;;;;;;;4.60;3.33;;;14.90;46.70;;;;;;5044935;28;20055;-54
2023/03/31 11:36:35;;;;;;;6.68;3.83;;;15.00;46.70;;;;;;5054266;28;20063;-53
2023/03/31 11:39:30;;;;;;;5.05;3.33;;;15.00;46.50;;;;;;5065145;28;20052;-50
2023/03/31 11:42:04;;;;;;;3.78;3.30;;;15.00;46.30;;;;;;5047556;28;20156;-56
2023/03/31 11:44:40;;;;;;;4.43;3.45;;;15.00;46.30;;;;;;5049600;28;20039;-56
2023/03/31 11:47:12;;;;;;;6.05;4.30;;;15.00;46.30;;;;;;5042981;28;20446;-56
2023/03/31 11:49:43;;;;;;;4.60;3.60;;;15.00;46.20;;;;;;5042278;28;20035;-53
2023/03/31 11:52:15;;;;;;;4.07;3.40;;;15.00;46.00;;;;;;5051629;28;20466;-56
2023/03/31 11:54:50;;;;;;;5.35;3.67;;;15.00;46.00;;;;;;5040929;28;20226;-49
2023/03/31 11:57:24;;;;;;;4.95;3.83;;;15.00;46.00;;;;;;5047155;28;20052;-52
2023/03/31 12:00:26;;;;;;;5.35;2.95;;;15.10;45.80;;;;;;5036543;28;21346;-56
2023/03/31 12:03:12;;;;;;;4.07;2.67;;;15.10;45.60;;;;;;5042446;28;20033;-54
2023/03/31 12:05:46;;;;;;;3.70;3.00;;;15.10;45.90;;;;;;5035302;28;20033;-55
2023/03/31 12:08:35;;;;;;;2.95;2.40;;;15.20;45.60;;;;;;5050597;28;20155;-54
2023/03/31 12:11:44;;;;;;;3.50;2.65;;;15.20;45.40;;;;;;5040059;28;20029;-49
2023/03/31 12:14:28;;;;;;;3.38;2.75;;;15.20;45.40;;;;;;5022406;28;20469;-56
2023/03/31 12:17:16;;;;;;;4.10;3.10;;;15.20;45.30;;;;;;5053152;28;20514;-58
2023/03/31 12:19:47;;;;;;;4.07;3.03;;;15.20;45.20;;;;;;5042123;28;20035;-52
2023/03/31 12:22:18;;;;;;;;;;;15.20;45.20;;;;;;5052563;28;20016;-51
2023/03/31 12:24:45;;;;;;;4.95;3.10;;;15.00;45.20;;;;;;5052664;28;19920;-49
2023/03/31 12:27:31;;;;;;;4.43;3.10;;;15.00;45.60;;;;;;5054635;28;20059;-53
2023/03/31 12:30:02;;;;;;;4.07;3.00;;;15.00;45.40;;;;;;5050830;28;20417;-54
2023/03/31 12:32:32;;;;;;;3.87;3.03;;;15.00;45.30;;;;;;5052464;28;20037;-56
2023/03/31 12:35:00;;;;;;;2.95;2.65;;;14.90;45.30;;;;;;5049084;28;20028;-56
2023/03/31 12:37:45;;;;;;;2.75;2.55;;;14.90;45.40;;;;;;5040328;28;20028;-52
2023/03/31 12:40:33;;;;;;;2.60;2.40;;;14.90;45.40;;;;;;5041648;28;20437;-55
2023/03/31 12:43:23;;;;;;;3.50;2.70;;;14.90;45.30;;;;;;5056372;28;20060;-53
2023/03/31 12:46:21;;;;;;;3.95;2.95;;;14.90;45.20;;;;;;5049050;28;20033;-55
2023/03/31 12:49:07;;;;;;;3.58;2.85;;;14.90;45.10;;;;;;5045807;28;20037;-50
2023/03/31 12:51:41;;;;;;;3.60;2.80;;;14.90;45.20;;;;;;5047568;28;20643;-51
2023/03/31 12:54:37;;;;;;;4.38;3.00;;;14.90;45.20;;;;;;5044208;28;20028;-55
2023/03/31 12:57:06;;;;;;;3.58;3.08;;;14.90;45.20;;;;;;5043617;28;20036;-58
2023/03/31 12:59:36;;;;;;;4.35;3.22;;;14.90;45.40;;;;;;5042779;28;20025;-52
2023/03/31 13:02:08;;;;;;;3.90;2.78;;;14.80;45.20;;;;;;5036780;28;20729;-56
2023/03/31 13:04:33;;;;;;;;;;;14.80;45.20;;;;;;5052653;28;20029;-52
2023/03/31 13:06:59;;;;;;;4.20;2.88;;;14.80;45.30;;;;;;5050712;28;19919;-54
2023/03/31 13:09:51;;;;;;;3.45;2.83;;;14.80;45.60;;;;;;5048333;28;20435;-51
2023/03/31 13:12:20;;;;;;;3.13;2.80;;;14.80;45.50;;;;;;5056021;28;20024;-54
2023/03/31 13:14:50;;;;;;;3.67;3.05;;;14.80;45.40;;;;;;5047822;28;20118;-58